Time;durP1;ratioP1;P1;durP2;ratioP2;P2;SDS_P1;SDS_P2;PMS_P1;PMS_P2;Temp;Humidity;BMP_temperature;BMP_pressure;BME280_temperature;BME280_humidity;BME280_pressure;Samples;Min_cycle;Max_cycle;Signal;HPM_P1;HPM_P2
2022/11/13 00:00:26;;;;;;;;;;;;;;;16.56;69.09;102146.50;5076127;28;19920;-72
2022/11/13 00:02:52;;;;;;;;;;;;;;;16.60;68.98;102152.63;5076189;28;19920;-71
2022/11/13 00:05:17;;;;;;;;;;;;;;;16.63;68.71;102141.94;5075847;28;20437;-70
2022/11/13 00:07:42;;;;;;;;;;;;;;;16.61;68.71;102138.47;5077894;28;19948;-70
2022/11/13 00:10:07;;;;;;;;;;;;;;;16.62;68.69;102138.41;5076747;28;19925;-70
2022/11/13 00:12:33;;;;;;;;;;;;;;;16.70;68.48;102138.28;5074675;28;19924;-71
2022/11/13 00:14:58;;;;;;;;;;;;;;;16.75;68.20;102139.94;5071335;28;19977;-71
2022/11/13 00:17:23;;;;;;;;;;;;;;;16.81;68.21;102146.94;5072498;28;20338;-71
2022/11/13 00:19:48;;;;;;;;;;;;;;;16.84;67.90;102136.28;5074457;28;19987;-70
2022/11/13 00:22:14;;;;;;;;;;;;;;;16.84;67.86;102144.22;5073141;28;19931;-71
2022/11/13 00:24:39;;;;;;;;;;;;;;;16.88;67.87;102143.25;5074534;28;19947;-70
2022/11/13 00:27:04;;;;;;;;;;;;;;;16.90;67.52;102136.13;5073038;28;19937;-69
2022/11/13 00:29:30;;;;;;;;;;;;;;;16.73;68.02;102131.16;5072720;28;19924;-67
2022/11/13 00:31:55;;;;;;;;;;;;;;;16.66;68.30;102133.94;5075221;28;19943;-70
2022/11/13 00:34:20;;;;;;;;;;;;;;;16.57;68.77;102136.75;5075459;28;19923;-71
2022/11/13 00:36:45;;;;;;;;;;;;;;;16.41;69.32;102128.22;5074118;28;19932;-70
2022/11/13 00:39:11;;;;;;;;;;;;;;;16.46;69.11;102129.00;5075444;28;19920;-70
2022/11/13 00:41:36;;;;;;;;;;;;;;;16.34;69.68;102143.34;5074280;28;19929;-70
2022/11/13 00:44:02;;;;;;;;;;;;;;;16.49;69.32;102139.56;5074060;28;19925;-71
2022/11/13 00:46:28;;;;;;;;;;;;;;;16.41;69.28;102139.69;5074457;28;19925;-72
2022/11/13 00:48:53;;;;;;;;;;;;;;;16.47;69.25;102131.59;5074426;28;19978;-71
2022/11/13 00:51:18;;;;;;;;;;;;;;;16.35;69.61;102136.25;5075897;28;19925;-70
2022/11/13 00:53:44;;;;;;;;;;;;;;;16.34;69.46;102134.53;5073695;28;20008;-70
2022/11/13 00:56:09;;;;;;;;;;;;;;;16.35;69.41;102133.63;5106642;28;19928;-70
2022/11/13 00:58:34;;;;;;;;;;;;;;;16.34;69.53;102131.88;5076177;28;19932;-70
2022/11/13 01:01:04;;;;;;;;;;;;;;;16.28;69.67;102135.53;5075980;28;19921;-70
2022/11/13 01:03:29;;;;;;;;;;;;;;;16.24;69.96;102124.09;5071673;28;19978;-70
2022/11/13 01:05:55;;;;;;;;;;;;;;;16.31;69.70;102130.13;5073412;28;20007;-70
2022/11/13 01:08:20;;;;;;;;;;;;;;;16.35;69.56;102128.31;5072557;28;19933;-71
2022/11/13 01:10:47;;;;;;;;;;;;;;;16.40;69.29;102127.34;5074589;28;20379;-71
2022/11/13 01:13:13;;;;;;;;;;;;;;;16.41;69.37;102120.25;5073926;28;19920;-70
2022/11/13 01:15:39;;;;;;;;;;;;;;;16.44;69.27;102117.56;5081498;28;20438;-71
2022/11/13 01:18:04;;;;;;;;;;;;;;;16.50;69.05;102120.06;5086797;28;19929;-72
2022/11/13 01:20:31;;;;;;;;;;;;;;;16.55;68.79;102117.31;5070106;28;19969;-70
2022/11/13 01:22:56;;;;;;;;;;;;;;;16.60;68.54;102112.84;5071419;28;19931;-71
2022/11/13 01:25:21;;;;;;;;;;;;;;;16.58;68.62;102117.28;5072129;28;19924;-71
2022/11/13 01:27:47;;;;;;;;;;;;;;;16.57;68.55;102118.19;5074558;28;20326;-69
2022/11/13 01:30:12;;;;;;;;;;;;;;;16.61;68.57;102114.56;5072673;28;19924;-69
2022/11/13 01:32:37;;;;;;;;;;;;;;;16.63;68.47;102107.44;5071571;28;19931;-69
2022/11/13 01:35:03;;;;;;;;;;;;;;;16.59;68.42;102111.06;5073027;28;20346;-69
2022/11/13 01:37:28;;;;;;;;;;;;;;;16.54;68.70;102110.28;5089738;28;19952;-70
2022/11/13 01:39:53;;;;;;;;;;;;;;;16.50;68.77;102107.69;5074354;28;19921;-69
2022/11/13 01:42:18;;;;;;;;;;;;;;;16.46;69.08;102105.97;5073206;28;19974;-69
2022/11/13 01:44:46;;;;;;;;;;;;;;;16.47;69.09;102098.91;5074151;28;19920;-68
2022/11/13 01:47:12;;;;;;;;;;;;;;;16.53;69.02;102109.41;5074105;28;19916;-70
2022/11/13 01:49:39;;;;;;;;;;;;;;;16.60;68.81;102095.13;5071136;28;19977;-70
2022/11/13 01:52:07;;;;;;;;;;;;;;;16.67;68.38;102099.38;5071499;28;19924;-70
2022/11/13 01:54:52;;;;;;;;;;;;;;;16.70;68.22;102095.81;5072971;28;19966;-69
2022/11/13 01:57:18;;;;;;;;;;;;;;;16.67;68.44;102096.72;5070922;28;19936;-69
2022/11/13 01:59:47;;;;;;;;;;;;;;;16.66;68.44;102091.47;5071997;28;20287;-71
2022/11/13 02:02:13;;;;;;;;;;;;;;;16.68;68.17;102087.00;5072588;28;19963;-70
2022/11/13 02:04:38;;;;;;;;;;;;;;;16.72;68.24;102086.91;5073332;28;20005;-70
2022/11/13 02:07:05;;;;;;;;;;;;;;;16.50;68.59;102090.88;5070583;28;19925;-69
2022/11/13 02:09:35;;;;;;;;;;;;;;;16.46;68.84;102086.53;5072591;28;19916;-71
2022/11/13 02:12:02;;;;;;;;;;;;;;;16.44;68.88;102094.53;5072594;28;19920;-70
2022/11/13 02:14:28;;;;;;;;;;;;;;;16.45;68.84;102090.97;5072477;28;20272;-69
2022/11/13 02:16:59;;;;;;;;;;;;;;;16.41;69.05;102091.06;5073718;28;19927;-70
2022/11/13 02:19:26;;;;;;;;;;;;;;;16.40;69.19;102092.84;5072120;28;20344;-69
2022/11/13 02:21:56;;;;;;;;;;;;;;;16.42;69.17;102093.69;5071452;28;20058;-69
2022/11/13 02:24:24;;;;;;;;;;;;;;;16.46;68.95;102083.88;5073620;28;19939;-71
2022/11/13 02:26:50;;;;;;;;;;;;;;;16.45;69.09;102087.47;5072819;28;19925;-70
2022/11/13 02:29:16;;;;;;;;;;;;;;;16.37;69.12;102090.25;5074019;28;19917;-70
2022/11/13 02:31:41;;;;;;;;;;;;;;;16.30;69.33;102087.75;5073789;28;19962;-70
2022/11/13 02:34:06;;;;;;;;;;;;;;;16.32;69.25;102089.47;5070470;28;19990;-71
2022/11/13 02:36:32;;;;;;;;;;;;;;;16.37;69.31;102087.59;5073543;28;19928;-70
2022/11/13 02:39:00;;;;;;;;;;;;;;;16.63;68.53;102079.13;5072427;28;20468;-70
2022/11/13 02:41:26;;;;;;;;;;;;;;;16.72;68.20;102086.06;5072270;28;20011;-70
2022/11/13 02:43:51;;;;;;;;;;;;;;;16.79;67.77;102082.38;5074098;28;19956;-70
2022/11/13 02:46:16;;;;;;;;;;;;;;;16.77;67.78;102081.53;5076526;28;19928;-70
2022/11/13 02:48:41;;;;;;;;;;;;;;;16.76;67.78;102071.84;5077392;28;19925;-70
2022/11/13 02:51:07;;;;;;;;;;;;;;;16.75;67.72;102078.03;5075153;28;19969;-70
2022/11/13 02:53:32;;;;;;;;;;;;;;;16.69;67.88;102078.13;5074069;28;19921;-70
2022/11/13 02:55:57;;;;;;;;;;;;;;;16.71;67.76;102082.50;5076193;28;20295;-70
2022/11/13 02:58:23;;;;;;;;;;;;;;;16.67;67.77;102079.94;5074030;28;20050;-69
2022/11/13 03:00:48;;;;;;;;;;;;;;;16.58;68.15;102074.81;5077308;28;20284;-70
2022/11/13 03:03:13;;;;;;;;;;;;;;;16.50;68.46;102077.63;5074687;28;20026;-70
2022/11/13 03:05:38;;;;;;;;;;;;;;;16.56;68.33;102080.16;5077072;28;19932;-70
2022/11/13 03:08:04;;;;;;;;;;;;;;;16.64;68.18;102074.72;5076848;28;20300;-70
2022/11/13 03:10:30;;;;;;;;;;;;;;;16.68;67.95;102071.97;5075687;28;19924;-70
2022/11/13 03:12:57;;;;;;;;;;;;;;;16.69;68.07;102073.69;5076105;28;20021;-70
2022/11/13 03:15:22;;;;;;;;;;;;;;;16.73;67.76;102070.13;5110232;28;20391;-70
2022/11/13 03:17:47;;;;;;;;;;;;;;;16.75;67.64;102078.91;5075931;28;19951;-70
2022/11/13 03:20:12;;;;;;;;;;;;;;;16.79;67.53;102084.16;5075301;28;19925;-70
2022/11/13 03:22:38;;;;;;;;;;;;;;;16.83;67.37;102094.69;5075883;28;19927;-70
2022/11/13 03:25:04;;;;;;;;;;;;;;;16.84;67.37;102088.47;5075851;28;19959;-70
2022/11/13 03:27:29;;;;;;;;;;;;;;;16.84;67.30;102092.91;5076615;28;19923;-70
2022/11/13 03:29:54;;;;;;;;;;;;;;;16.86;67.11;102091.97;5075490;28;20387;-71
2022/11/13 03:32:20;;;;;;;;;;;;;;;16.80;67.29;102084.16;5074601;28;19925;-70
2022/11/13 03:34:45;;;;;;;;;;;;;;;16.81;67.40;102093.84;5107445;28;19932;-71
2022/11/13 03:37:10;;;;;;;;;;;;;;;16.77;67.25;102091.28;5076728;28;20398;-71
2022/11/13 03:39:35;;;;;;;;;;;;;;;16.80;67.36;102096.53;5075586;28;19943;-70
2022/11/13 03:42:01;;;;;;;;;;;;;;;16.79;67.29;102085.03;5073983;28;19920;-70
2022/11/13 03:44:26;;;;;;;;;;;;;;;16.83;67.32;102086.72;5075015;28;19921;-69
2022/11/13 03:46:51;;;;;;;;;;;;;;;16.85;66.99;102087.56;5075372;28;19967;-69
2022/11/13 03:49:16;;;;;;;;;;;;;;;16.85;67.23;102090.22;5076773;28;20284;-70
2022/11/13 03:51:42;;;;;;;;;;;;;;;16.84;67.13;102083.19;5074903;28;20007;-69
2022/11/13 03:54:07;;;;;;;;;;;;;;;16.83;66.94;102081.41;5074072;28;19925;-71
2022/11/13 03:56:34;;;;;;;;;;;;;;;16.81;67.10;102088.53;5073172;28;20514;-69
2022/11/13 03:58:59;;;;;;;;;;;;;;;16.85;66.90;102086.69;5078120;28;20013;-69
2022/11/13 04:01:24;;;;;;;;;;;;;;;16.87;66.95;102085.75;5070765;28;19920;-70
2022/11/13 04:03:50;;;;;;;;;;;;;;;16.87;66.99;102085.75;5075569;28;19920;-70
2022/11/13 04:06:16;;;;;;;;;;;;;;;16.80;67.16;102086.78;5074324;28;19924;-68
2022/11/13 04:08:41;;;;;;;;;;;;;;;16.78;67.36;102083.28;5076027;28;19954;-70
2022/11/13 04:11:10;;;;;;;;;;;;;;;16.66;67.64;102083.50;5074826;28;20425;-70
2022/11/13 04:13:35;;;;;;;;;;;;;;;16.57;67.88;102084.56;5071423;28;19928;-69
2022/11/13 04:16:00;;;;;;;;;;;;;;;16.60;67.88;102084.50;5073601;28;19927;-69
2022/11/13 04:18:26;;;;;;;;;;;;;;;16.59;67.90;102093.34;5072212;28;19920;-69
2022/11/13 04:20:51;;;;;;;;;;;;;;;16.51;68.09;102090.84;5074842;28;19925;-70
2022/11/13 04:23:16;;;;;;;;;;;;;;;16.48;68.17;102090.06;5074653;28;19924;-69
2022/11/13 04:25:42;;;;;;;;;;;;;;;16.37;68.48;102090.25;5075612;28;19920;-71
2022/11/13 04:28:07;;;;;;;;;;;;;;;16.25;69.03;102093.13;5072175;28;19969;-69
2022/11/13 04:30:32;;;;;;;;;;;;;;;16.26;69.01;102093.09;5073428;28;19951;-70
2022/11/13 04:32:58;;;;;;;;;;;;;;;16.23;69.11;102094.91;5074455;28;19924;-70
2022/11/13 04:35:23;;;;;;;;;;;;;;;16.23;69.13;102097.56;5074375;28;19924;-70
2022/11/13 04:37:48;;;;;;;;;;;;;;;16.32;69.13;102097.44;5075540;28;20043;-70
2022/11/13 04:40:14;;;;;;;;;;;;;;;16.26;69.03;102089.56;5073052;28;19948;-70
2022/11/13 04:42:48;;;;;;;;;;;;;;;16.26;68.95;102097.53;5073842;28;19946;-70
2022/11/13 04:45:14;;;;;;;;;;;;;;;16.25;69.01;102093.13;5073072;28;20057;-69
2022/11/13 04:47:40;;;;;;;;;;;;;;;16.31;69.25;102100.09;5075317;28;19927;-70
2022/11/13 04:50:05;;;;;;;;;;;;;;;16.38;68.69;102099.94;5074708;28;19924;-68
2022/11/13 04:52:31;;;;;;;;;;;;;;;16.45;68.63;102090.09;5070644;28;19921;-70
2022/11/13 04:54:56;;;;;;;;;;;;;;;16.55;68.39;102096.09;5072105;28;20591;-69
2022/11/13 04:57:22;;;;;;;;;;;;;;;16.60;67.95;102091.59;5071587;28;19928;-70
2022/11/13 04:59:47;;;;;;;;;;;;;;;16.61;67.83;102096.88;5072602;28;19924;-70
2022/11/13 05:02:12;;;;;;;;;;;;;;;16.67;67.69;102101.16;5073539;28;20398;-69
2022/11/13 05:04:37;;;;;;;;;;;;;;;16.67;67.53;102102.03;5072825;28;20311;-70
2022/11/13 05:07:03;;;;;;;;;;;;;;;16.70;67.50;102101.97;5073531;28;19924;-70
2022/11/13 05:09:28;;;;;;;;;;;;;;;16.68;67.17;102106.47;5105934;28;20395;-70
2022/11/13 05:11:53;;;;;;;;;;;;;;;16.56;67.76;102108.50;5074639;28;19942;-69
2022/11/13 05:14:18;;;;;;;;;;;;;;;16.58;67.87;102109.31;5073548;28;19924;-69
2022/11/13 05:16:43;;;;;;;;;;;;;;;16.62;67.71;102103.03;5056479;28;20291;-70
2022/11/13 05:19:09;;;;;;;;;;;;;;;16.69;67.51;102099.38;5072595;28;19932;-70
2022/11/13 05:21:38;;;;;;;;;;;;;;;16.73;67.54;102103.75;5075080;28;20015;-70
2022/11/13 05:24:03;;;;;;;;;;;;;;;16.75;67.48;102099.28;5072472;28;19921;-70
2022/11/13 05:26:29;;;;;;;;;;;;;;;16.66;67.45;102096.78;5074395;28;19923;-71
2022/11/13 05:28:58;;;;;;;;;;;;;;;16.57;67.64;102105.78;5072495;28;19920;-68
2022/11/13 05:31:24;;;;;;;;;;;;;;;16.55;67.86;102101.41;5071691;28;19928;-68
2022/11/13 05:33:49;;;;;;;;;;;;;;;16.48;68.20;102100.66;5088983;28;20381;-69
2022/11/13 05:36:15;;;;;;;;;;;;;;;16.54;68.06;102107.63;5073438;28;19920;-69
2022/11/13 05:38:40;;;;;;;;;;;;;;;16.58;68.20;102096.91;5073211;28;19966;-71
2022/11/13 05:41:10;;;;;;;;;;;;;;;16.60;67.92;102103.09;5072729;28;19924;-70
2022/11/13 05:43:36;;;;;;;;;;;;;;;16.62;67.83;102092.44;5074312;28;19971;-71
2022/11/13 05:46:03;;;;;;;;;;;;;;;16.57;67.89;102096.97;5073157;28;20388;-70
2022/11/13 05:48:29;;;;;;;;;;;;;;;16.58;67.71;102096.06;5071860;28;19924;-70
2022/11/13 05:50:59;;;;;;;;;;;;;;;16.67;67.41;102087.91;5071474;28;20031;-69
2022/11/13 05:53:24;;;;;;;;;;;;;;;16.65;67.47;102093.25;5072912;28;19964;-72
2022/11/13 05:55:49;;;;;;;;;;;;;;;16.63;67.69;102091.50;5071688;28;19952;-71
2022/11/13 05:58:15;;;;;;;;;;;;;;;16.59;67.49;102100.44;5067039;28;19924;-71
2022/11/13 06:00:40;;;;;;;;;;;;;;;16.62;67.73;102095.94;5072365;28;19924;-71
2022/11/13 06:03:05;;;;;;;;;;;;;;;16.64;67.43;102095.94;5072784;28;19951;-71
2022/11/13 06:05:33;;;;;;;;;;;;;;;16.64;67.45;102093.28;5072881;28;19916;-70
2022/11/13 06:07:58;;;;;;;;;;;;;;;16.66;67.41;102099.44;5071787;28;19921;-71
2022/11/13 06:10:24;;;;;;;;;;;;;;;16.61;67.70;102091.56;5072835;28;19974;-71
2022/11/13 06:12:49;;;;;;;;;;;;;;;16.61;67.49;102093.34;5072759;28;19977;-71
2022/11/13 06:15:14;;;;;;;;;;;;;;;16.67;67.24;102102.03;5072805;28;20395;-70
2022/11/13 06:17:43;;;;;;;;;;;;;;;16.68;67.32;102097.63;5072341;28;19929;-71
2022/11/13 06:20:09;;;;;;;;;;;;;;;16.70;67.32;102101.13;5071628;28;19924;-70
2022/11/13 06:22:34;;;;;;;;;;;;;;;16.67;67.36;102095.84;5072766;28;19924;-70
2022/11/13 06:24:59;;;;;;;;;;;;;;;16.68;67.31;102097.63;5072804;28;20310;-70
2022/11/13 06:27:26;;;;;;;;;;;;;;;16.67;67.41;102090.56;5072878;28;19916;-69
2022/11/13 06:29:51;;;;;;;;;;;;;;;16.66;67.46;102095.00;5072668;28;19920;-70
2022/11/13 06:32:16;;;;;;;;;;;;;;;16.65;67.34;102101.22;5071669;28;20272;-69
2022/11/13 06:34:41;;;;;;;;;;;;;;;16.66;67.35;102102.06;5072804;28;19921;-71
2022/11/13 06:37:07;;;;;;;;;;;;;;;16.71;67.21;102102.84;5074678;28;19966;-70
2022/11/13 06:39:32;;;;;;;;;;;;;;;16.68;67.32;102101.16;5069830;28;19928;-69
2022/11/13 06:41:57;;;;;;;;;;;;;;;16.72;67.35;102107.28;5073411;28;19928;-70
2022/11/13 06:44:22;;;;;;;;;;;;;;;16.73;67.37;102111.72;5105897;28;20388;-69
2022/11/13 06:46:48;;;;;;;;;;;;;;;16.73;67.23;102119.66;5071456;28;19932;-69
2022/11/13 06:49:13;;;;;;;;;;;;;;;16.68;67.18;102124.16;5072488;28;19955;-70
2022/11/13 06:51:38;;;;;;;;;;;;;;;16.61;67.47;102122.53;5072030;28;19956;-71
2022/11/13 06:54:03;;;;;;;;;;;;;;;16.67;67.45;102119.75;5072002;28;19921;-69
2022/11/13 06:56:29;;;;;;;;;;;;;;;16.67;67.32;102117.09;5073552;28;19943;-70
2022/11/13 06:58:55;;;;;;;;;;;;;;;16.66;67.47;102120.66;5073555;28;20277;-70
2022/11/13 07:01:21;;;;;;;;;;;;;;;16.68;67.18;102125.03;5070662;28;19963;-71
2022/11/13 07:03:47;;;;;;;;;;;;;;;16.73;67.29;102124.97;5072398;28;19920;-71
2022/11/13 07:06:17;;;;;;;;;;;;;;;16.79;67.15;102116.88;5073677;28;19917;-69
2022/11/13 07:08:43;;;;;;;;;;;;;;;16.86;67.00;102128.25;5072228;28;19924;-69
2022/11/13 07:11:10;;;;;;;;;;;;;;;16.83;66.80;102123.00;5072062;28;20006;-69
2022/11/13 07:13:36;;;;;;;;;;;;;;;16.84;66.82;102119.47;5070026;28;19974;-71
2022/11/13 07:16:02;;;;;;;;;;;;;;;16.89;66.61;102125.56;5073046;28;19920;-71
2022/11/13 07:18:27;;;;;;;;;;;;;;;16.91;66.76;102121.94;5070505;28;19931;-70
2022/11/13 07:20:52;;;;;;;;;;;;;;;16.95;66.47;102113.00;5073461;28;20011;-70
2022/11/13 07:23:18;;;;;;;;;;;;;;;16.96;66.46;102116.56;5072373;28;19967;-70
2022/11/13 07:25:43;;;;;;;;;;;;;;;16.83;66.63;102123.88;5084060;28;19932;-71
2022/11/13 07:28:08;;;;;;;;;;;;;;;16.86;66.82;102122.94;5072992;28;19920;-70
2022/11/13 07:30:33;;;;;;;;;;;;;;;16.90;66.84;102124.63;5075455;28;19917;-70
2022/11/13 07:33:02;;;;;;;;;;;;;;;16.91;66.73;102121.94;5075634;28;20311;-71
2022/11/13 07:35:28;;;;;;;;;;;;;;;16.91;66.48;102119.28;5077356;28;20003;-70
2022/11/13 07:37:57;;;;;;;;;;;;;;;16.87;66.79;102122.03;5076695;28;19967;-70
2022/11/13 07:40:22;;;;;;;;;;;;;;;16.79;66.94;102124.84;5074729;28;19920;-70
2022/11/13 07:42:55;;;;;;;;;;;;;;;16.77;67.19;102124.00;5075566;28;19981;-71
2022/11/13 07:45:20;;;;;;;;;;;;;;;16.74;67.14;102113.44;5075971;28;19925;-71
2022/11/13 07:47:45;;;;;;;;;;;;;;;16.69;67.31;102115.28;5076657;28;19943;-73
2022/11/13 07:50:11;;;;;;;;;;;;;;;16.68;67.58;102122.38;5071898;28;19932;-73
2022/11/13 07:52:36;;;;;;;;;;;;;;;16.78;67.26;102124.88;5074588;28;19931;-73
2022/11/13 07:55:01;;;;;;;;;;;;;;;16.87;67.35;102117.59;5076003;28;19956;-69
2022/11/13 07:57:26;;;;;;;;;;;;;;;16.97;67.09;102121.81;5076345;28;19927;-72
2022/11/13 07:59:52;;;;;;;;;;;;;;;16.99;66.70;102128.00;5075390;28;19920;-72
2022/11/13 08:02:17;;;;;;;;;;;;;;;17.08;66.35;102123.41;5075978;28;19921;-72
2022/11/13 08:04:42;;;;;;;;;;;;;;;17.15;66.36;102130.31;5073415;28;20444;-72
2022/11/13 08:07:09;;;;;;;;;;;;;;;17.21;66.13;102135.50;5076118;28;19943;-70
2022/11/13 08:09:35;;;;;;;;;;;;;;;17.27;66.13;102140.66;5076950;28;19929;-73
2022/11/13 08:12:00;;;;;;;;;;;;;;;17.34;65.70;102141.41;5074519;28;19935;-71
2022/11/13 08:14:25;;;;;;;;;;;;;;;17.36;65.19;102135.16;5091274;28;19946;-73
2022/11/13 08:16:50;;;;;;;;;;;;;;;17.37;65.43;102123.63;5079608;28;19924;-73
2022/11/13 08:19:16;;;;;;;;;;;;;;;17.35;65.30;102136.06;5082654;28;19924;-75
2022/11/13 08:21:41;;;;;;;;;;;;;;;17.40;65.53;102131.53;5074737;28;19982;-74
2022/11/13 08:24:08;;;;;;;;;;;;;;;17.45;65.25;102128.78;5075835;28;19924;-70
2022/11/13 08:26:36;;;;;;;;;;;;;;;17.48;65.49;102124.25;5089725;28;19928;-74
2022/11/13 08:29:01;;;;;;;;;;;;;;;17.54;65.17;102133.00;5077990;28;19927;-70
2022/11/13 08:31:27;;;;;;;;;;;;;;;17.57;65.45;102130.28;5076886;28;19924;-73
2022/11/13 08:33:52;;;;;;;;;;;;;;;17.59;65.29;102131.97;5075792;28;20006;-71
2022/11/13 08:36:17;;;;;;;;;;;;;;;17.59;65.04;102125.78;5077453;28;20288;-74
2022/11/13 08:38:42;;;;;;;;;;;;;;;17.61;65.15;102126.63;5076272;28;19920;-74
2022/11/13 08:41:08;;;;;;;;;;;;;;;17.63;64.65;102127.47;5075073;28;20011;-74
2022/11/13 08:43:34;;;;;;;;;;;;;;;17.68;64.78;102125.59;5058589;28;19976;-74
2022/11/13 08:45:59;;;;;;;;;;;;;;;17.69;64.70;102132.66;5076249;28;19928;-73
2022/11/13 08:48:24;;;;;;;;;;;;;;;17.71;64.84;102125.50;5076302;28;19935;-73
2022/11/13 08:50:51;;;;;;;;;;;;;;;17.67;64.67;102122.06;5075208;28;19931;-73
2022/11/13 08:53:16;;;;;;;;;;;;;;;17.69;64.15;102128.19;5075461;28;19951;-76
2022/11/13 08:55:41;;;;;;;;;;;;;;;17.64;64.68;102130.09;5075750;28;20391;-75
2022/11/13 08:58:07;;;;;;;;;;;;;;;17.69;64.60;102124.69;5076007;28;19921;-72
2022/11/13 09:00:33;;;;;;;;;;;;;;;17.76;64.59;102122.78;5074208;28;19965;-75
2022/11/13 09:02:59;;;;;;;;;;;;;;;17.81;64.82;102128.84;5078146;28;20478;-73
2022/11/13 09:05:25;;;;;;;;;;;;;;;17.85;64.51;102136.72;5075318;28;19924;-71
2022/11/13 09:07:50;;;;;;;;;;;;;;;17.86;64.04;102135.81;5075847;28;20292;-71
2022/11/13 09:10:15;;;;;;;;;;;;;;;17.85;64.30;102128.75;5075933;28;20368;-68
2022/11/13 09:12:41;;;;;;;;;;;;;;;17.73;64.12;102126.34;5075453;28;19928;-69
2022/11/13 09:15:06;;;;;;;;;;;;;;;17.77;64.28;102136.03;5069470;28;19971;-67
2022/11/13 09:17:32;;;;;;;;;;;;;;;17.78;64.47;102129.78;5079186;28;20299;-69
2022/11/13 09:19:57;;;;;;;;;;;;;;;17.81;64.46;102132.38;5084029;28;19932;-68
2022/11/13 09:22:22;;;;;;;;;;;;;;;17.81;64.73;102129.72;5079152;28;19932;-69
2022/11/13 09:24:47;;;;;;;;;;;;;;;17.88;64.44;102128.69;5055073;28;19928;-67
2022/11/13 09:27:13;;;;;;;;;;;;;;;17.91;64.05;102122.38;5070668;28;19927;-68
2022/11/13 09:29:38;;;;;;;;;;;;;;;17.90;64.20;102126.84;5074549;28;20447;-68
2022/11/13 09:32:05;;;;;;;;;;;;;;;17.85;64.63;102126.09;5074453;28;19920;-69
2022/11/13 09:34:32;;;;;;;;;;;;;;;17.91;64.21;102120.63;5074784;28;19954;-67
2022/11/13 09:36:58;;;;;;;;;;;;;;;17.87;64.00;102123.38;5073866;28;19916;-68
2022/11/13 09:39:23;;;;;;;;;;;;;;;17.90;64.44;102123.31;5076113;28;19936;-67
2022/11/13 09:41:48;;;;;;;;;;;;;;;17.94;64.40;102125.84;5074625;28;20296;-66
2022/11/13 09:44:16;;;;;;;;;;;;;;;18.01;64.31;102123.94;5082642;28;19920;-66
2022/11/13 09:46:50;;;;;;;;;;;;;;;17.98;64.05;102124.84;5091347;28;20363;-66
2022/11/13 09:49:15;;;;;;;;;;;;;;;18.03;63.96;102129.19;5093721;28;19924;-67
2022/11/13 09:51:41;;;;;;;;;;;;;;;18.08;63.89;102124.66;5093418;28;19924;-66
2022/11/13 09:54:10;;;;;;;;;;;;;;;18.10;63.75;102118.34;5092966;28;19927;-67
2022/11/13 09:56:50;;;;;;;;;;;;;;;18.09;63.23;102121.94;5083796;28;19928;-66
2022/11/13 09:59:19;;;;;;;;;;;;;;;18.10;63.41;102121.03;5073640;28;19939;-66
2022/11/13 10:01:44;;;;;;;;;;;;;;;18.16;63.24;102117.34;5074965;28;19916;-65
2022/11/13 10:04:12;;;;;;;;;;;;;;;18.16;62.78;102120.00;5074385;28;19916;-67
2022/11/13 10:06:43;;;;;;;;;;;;;;;18.20;62.67;102121.69;5073299;28;19921;-65
2022/11/13 10:09:08;;;;;;;;;;;;;;;18.20;62.29;102125.22;5074413;28;19923;-66
2022/11/13 10:11:43;;;;;;;;;;;;;;;18.23;62.26;102124.22;5074127;28;20015;-66
2022/11/13 10:14:11;;;;;;;;;;;;;;;18.22;62.17;102112.72;5072776;28;19955;-67
2022/11/13 10:16:44;;;;;;;;;;;;;;;18.25;61.64;102110.91;5073337;28;19958;-66
2022/11/13 10:19:20;;;;;;;;;;;;;;;18.22;61.58;102122.50;5072643;28;19917;-66
2022/11/13 10:21:48;;;;;;;;;;;;;;;18.16;61.86;102117.34;5073709;28;19917;-66
2022/11/13 10:24:43;;;;;;;;;;;;;;;18.10;61.42;102118.34;5072130;28;20326;-66
2022/11/13 10:27:09;;;;;;;;;;;;;;;18.09;62.16;102115.75;5068337;28;19923;-67
2022/11/13 10:29:35;;;;;;;;;;;;;;;18.16;61.86;102112.91;5071009;28;19924;-66
2022/11/13 10:32:19;;;;;;;;;;;;;;;18.18;62.21;102111.06;5073860;28;19920;-66
2022/11/13 10:34:47;;;;;;;;;;;;;;;18.24;61.91;102110.03;5070648;28;19920;-67
2022/11/13 10:37:31;;;;;;;;;;;;;;;18.19;61.81;102110.16;5072806;28;19921;-67
2022/11/13 10:39:56;;;;;;;;;;;;;;;18.23;62.24;102105.59;5071580;28;19921;-66
2022/11/13 10:42:26;;;;;;;;;;;;;;;18.29;61.41;102102.81;5073465;28;19921;-65
2022/11/13 10:44:52;;;;;;;;;;;;;;;18.14;61.19;102103.19;5070759;28;19928;-66
2022/11/13 10:47:19;;;;;;;;;;;;;;;18.17;61.42;102092.50;5070329;28;19942;-67
2022/11/13 10:49:44;;;;;;;;;;;;;;;18.17;60.59;102101.34;5070343;28;19924;-66
2022/11/13 10:52:20;;;;;;;;;;;;;;;18.33;59.80;102100.94;5069196;28;19924;-67
2022/11/13 10:54:46;;;;;;;;;;;;;;;18.46;60.42;102097.03;5071110;28;19952;-65
2022/11/13 10:57:33;;;;;;;;;;;;;;;18.50;60.20;102095.16;5073374;28;19979;-65
2022/11/13 10:59:58;;;;;;;;;;;;;;;18.52;60.17;102099.53;5070526;28;19920;-66
2022/11/13 11:02:24;;;;;;;;;;;;;;;18.51;59.73;102099.56;5072305;28;19927;-66
2022/11/13 11:05:16;;;;;;;;;;;;;;;18.56;59.57;102100.31;5075298;28;19925;-64
2022/11/13 11:07:41;;;;;;;;;;;;;;;18.54;60.10;102096.81;5074353;28;20288;-66
2022/11/13 11:10:26;;;;;;;;;;;;;;;18.61;58.69;102093.94;5075935;28;19928;-65
2022/11/13 11:12:53;;;;;;;;;;;;;;;18.48;58.48;102094.34;5076838;28;19946;-66
2022/11/13 11:15:37;;;;;;;;;;;;;;;18.49;58.93;102088.09;5097158;28;19916;-65
2022/11/13 11:18:05;;;;;;;;;;;;;;;18.42;57.50;102077.59;5082273;28;19920;-66
2022/11/13 11:20:49;;;;;;;;;;;;;;;18.51;53.75;102070.28;5075507;28;19921;-64
2022/11/13 11:23:17;;;;;;;;;;;;;;;18.57;54.06;102064.78;5076536;28;20621;-65
2022/11/13 11:25:46;;;;;;;;;;;;;;;18.64;53.93;102066.38;5075670;28;20372;-64
2022/11/13 11:28:30;;;;;;;;;;;;;;;18.68;55.13;102063.56;5073095;28;20019;-67
2022/11/13 11:31:21;;;;;;;;;;;;;;;18.82;55.46;102065.84;5075648;28;19989;-67
2022/11/13 11:33:46;;;;;;;;;;;;;;;18.98;55.29;102060.06;5064247;28;19964;-66
2022/11/13 11:36:17;;;;;;;;;;;;;;;19.05;54.87;102061.63;5076424;28;19923;-66
2022/11/13 11:39:05;;;;;;;;;;;;;;;19.07;55.24;102066.00;5074577;28;19924;-65
2022/11/13 11:41:37;;;;;;;;;;;;;;;19.08;54.87;102062.44;5067506;28;19924;-66
2022/11/13 11:44:09;;;;;;;;;;;;;;;19.05;55.67;102057.19;5075282;28;19930;-66
2022/11/13 11:46:35;;;;;;;;;;;;;;;18.83;56.56;102062.28;5076062;28;19916;-66
2022/11/13 11:49:00;;;;;;;;;;;;;;;18.65;56.03;102061.00;5073147;28;19932;-66
2022/11/13 11:51:44;;;;;;;;;;;;;;;18.76;55.76;102055.41;5075278;28;20383;-66
2022/11/13 11:54:24;;;;;;;;;;;;;;;18.52;57.15;102050.75;5075358;28;19947;-66
2022/11/13 11:56:58;;;;;;;;;;;;;;;18.56;56.22;102055.94;5074432;28;20016;-65
2022/11/13 11:59:33;;;;;;;;;;;;;;;18.46;56.19;102049.13;5075058;28;19920;-66
2022/11/13 12:02:08;;;;;;;;;;;;;;;18.41;57.22;102048.38;5073519;28;19991;-66
2022/11/13 12:05:00;;;;;;;;;;;;;;;18.40;58.16;102043.97;5082952;28;20349;-65
2022/11/13 12:07:31;;;;;;;;;;;;;;;18.35;59.13;102051.19;5077830;28;19916;-65
2022/11/13 12:10:11;;;;;;;;;;;;;;;18.34;59.64;102042.34;5079399;28;19927;-67
2022/11/13 12:12:46;;;;;;;;;;;;;;;18.27;59.43;102035.44;5079547;28;19979;-65
2022/11/13 12:15:38;;;;;;;;;;;;;;;18.27;59.66;102034.56;5089602;28;19920;-66
2022/11/13 12:18:18;;;;;;;;;;;;;;;18.29;59.16;102030.97;5079139;28;20341;-66
2022/11/13 12:20:53;;;;;;;;;;;;;;;18.36;59.57;102040.53;5109450;28;19921;-67
2022/11/13 12:23:24;;;;;;;;;;;;;;;18.48;59.17;102041.09;5080259;28;20018;-67
2022/11/13 12:25:52;;;;;;;;;;;;;;;18.54;58.98;102030.28;5078042;28;19917;-66
2022/11/13 12:28:36;;;;;;;;;;;;;;;18.60;58.40;102033.63;5073545;28;20450;-67
2022/11/13 12:31:17;;;;;;;;;;;;;;;18.66;57.54;102036.09;5082360;28;20104;-67
2022/11/13 12:33:45;;;;;;;;;;;;;;;18.63;57.25;102037.97;5078765;28;19973;-66
2022/11/13 12:36:11;;;;;;;;;;;;;;;18.53;56.53;102034.72;5077866;28;19928;-67